AirNav   Air Wisconsin Up To $57,000 Bonus
 
 726 users online  

NY82 Alexander Farm Airport
East Schodack, New York, USA

GOING TO EAST SCHODACK?


FAA INFORMATION EFFECTIVE 05 DECEMBER 2019

Location

FAA Identifier: NY82
Lat/Long: 42-34-50.2890N 073-36-58.4180W
42-34.838150N 073-36.973633W
42.5806358,-73.6162272
(estimated)
Elevation: 525 ft. / 160 m (estimated)
Variation: 14W (1985)
From city: 2 miles NE of EAST SCHODACK, NY
Time zone: UTC -5 (UTC -4 during Daylight Saving Time)
Zip code: 12061

Airport Operations

Airport use: Private use. Permission required prior to landing
Control tower: no
ARTCC: BOSTON CENTER
FSS: BURLINGTON FLIGHT SERVICE STATION
Attendance: UNATNDD
Wind indicator: yes
Segmented circle: no

Airport Communications

WX ASOS at ALB (13 nm NW): PHONE 518-464-6423
WX ASOS at PSF (17 nm SE): 135.375 (413-499-3273)
WX AWOS-3 at 1B1 (18 nm S): 133.525 (518-828-2577)

Nearby radio navigation aids

VOR radial/distance  VOR name  Freq  Var
ALBr153/13.0ALBANY VORTAC115.3013W
CAMr220/27.6CAMBRIDGE VOR/DME115.0014W
CTRr313/34.3CHESTER VOR/DME115.1013W

 
NDB name  Hdg/Dist  Freq  Var  ID
PHILMONT027/20.227213WPFH .--. ..-. ....
HUNTER154/21.635614WHEU .... . ..-
GREAT BARRINGTON352/25.639514WGBR --. -... .-.

Airport Services

Runway Information

Runway 18/36

Dimensions: 3380 x 100 ft. / 1030 x 30 m
Surface: turf, in good condition
RUNWAY 18  RUNWAY 36
Traffic pattern: leftleft
Displaced threshold: 600 ft.no
Obstructions: 25 ft. trees, 50 ft. from runwaynone

Airport Ownership and Management from official FAA records

Ownership: Privately-owned
Owner: WARREN G. ALEXANDER
92 MORRIS ROAD
EAST GREENBUSH, NY 12061
Phone 518-477-9577
Manager: WARREN G ALEXANDER
EAST GREENBUSH, NY 12061

Airport Operational Statistics

Aircraft based on the field: 1
Multi engine airplanes: 1
    

Additional Remarks

FOR CD CTC ALBANY APCH AT 518-862-2299.

Instrument Procedures

There are no published instrument procedures at NY82.

Some nearby airports with instrument procedures:

4B0 - South Albany Airport (10 nm W)
KALB - Albany International Airport (13 nm NW)
KPSF - Pittsfield Municipal Airport (17 nm SE)
1B1 - Columbia County Airport (18 nm S)
KAQW - Harriman-and-West Airport (21 nm E)
 
Loc | Ops | Rwys | IFR | FBO | Links
Com | Nav | Svcs | Stats | Notes
Area around NY82 (Alexander Farm Airport)
 
Road maps at: MapQuest Bing Google
 
Aerial photo
No photo
 
Sectional chart

 
Airport distance calculator
Flying to Alexander Farm Airport? Find the distance to fly.

From to NY82

Sunrise and sunset
Times for 12-Dec-2019
 Local
(UTC-5)
 Zulu
(UTC)
Morning civil twilight06:4411:44
Sunrise07:1612:16
Sunset16:2021:20
Evening civil twilight16:5221:52

Current date and time
Zulu (UTC)  13-Dec-2019 04:11:27
Local (UTC-5)  12-Dec-2019 23:11:27
 
METAR
KALB 
13nm NW 
130351Z 18007KT 10SM SCT170 OVC250 M01/M11 A3057 RMK AO2 SLP357 T10111111
KPSF 
17nm SE 
130354Z AUTO 15008KT 10SM CLR M06/M10 A3053 RMK AO2 SLP360 T10611100
KSCH 
21nm NW 
130247Z 17005KT 10SM CLR M03/M10 A3058 RMK LAST
KAQW 
21nm E 
130352Z AUTO 09005KT 10SM CLR M04/M11 A3057 RMK AO2 SLP363 T10391111 TSNO
KDDH 
24nm NE 
130354Z AUTO VRB04KT 10SM CLR M03/M12 A3054 RMK AO2 SLP354 T10281122
TAF
KALB 
13nm NW 
121734Z 1218/1318 VRB04KT P6SM BKN250 FM130600 17010KT P6SM SCT250 FM131200 18004KT P6SM OVC050 FM131400 19005KT P6SM OVC015
KPSF 
17nm SE 
121734Z 1218/1318 27005KT P6SM BKN250 FM131100 16005KT P6SM OVC025 FM131300 16004KT P6SM BKN015
NOTAMs
Click for the latest NOTAMs
NOTAMs are issued by the DoD/FAA and will open in a separate window not controlled by AirNav.

 

 
 

Would you like to see your business listed on this page?

 If your business provides an interesting product or service to pilots, flight crews, aircraft, or users of the Alexander Farm Airport, you should consider listing it here.  To start the listing process, click on the button below
 
Add a business
 

Other Pages about Alexander Farm Airport

Update a link
 
Copyright © AirNav, LLC. All rights reserved. Privacy Policy  Contact